Hlavní strana
METAR-TAF:

METAR-TAF

Letiště :

Bagdád, Irák

zeměpisná šířka: 33-15-45N, zeměpisná délka: 44-14-04E, výška: 35 m

Aktuální stav počasí

Zpráva byla vytvořena před 51 minutami, v 23:00 UTC
Jihojihovýchodní vítr 8 kt
Teplota 7°C
Vlhkost vzduchu 93%
Tlak 1019 hPa
Viditelnost: 4000 m
kouřmo

METAR: ORBI 232300Z 15008KT 4000 BR NSC 07/06 Q1019 NOSIG

Čas: 02:51 (23:51 UTC)

Předpověď počasí

Zpráva byla vytvořena před 1 hodinou a 51 minutami, v 22:00 UTC
Předpověď platná od 24 v 00 UTC do 24 v 24 UTC
Jihojihovýchodní vítr 8 kt
Viditelnost: 3000 m
kouřmo
Změna
od 24 v 08 UTC do 24 v 10 UTC
Viditelnost: 5000 m
Oblačno až skoro zataženo ve výšce 3000 ft
Dočasný
od 24 v 18 UTC do 24 v 24 UTC
slabý déšť

TAF: ORBI 232200Z 2400/2424 16008KT 3000 BR NSC BECMG 2408/2410 5000 BKN030 TEMPO 2418/2424 -RA

Stav a předpovědi počasí z více než 4 000 letišť (zprávy METAR a TAF).

Červené a žluté tečky na mapě představují dostupné meteorologické stanice.

Když kurzor umístíte na tečku, zobrazí se název stanice.

Pak kliknutím zobrazíte stav a předpověď počasí.

Chcete-li změnit mapu, kliknutím na zelené tlačítko se znaménkem +mapu přiblížíte, kliknutím na zelené tlačítko se znaménkem – mapu oddálíte a kliknutím na zelené šipky přejdete na sousední mapy.


METAR-TAF: